sensor_id;sensor_type;location;lat;lon;timestamp;P1;durP1;ratioP1;P2;durP2;ratioP2
19149;SDS011;9707;49.158;8.632;2022-10-16T00:01:45;2.20;;;0.60;;
19149;SDS011;9707;49.158;8.632;2022-10-16T00:04:10;1.40;;;0.38;;
19149;SDS011;9707;49.158;8.632;2022-10-16T00:06:36;2.08;;;0.75;;
19149;SDS011;9707;49.158;8.632;2022-10-16T00:09:01;2.38;;;0.57;;
19149;SDS011;9707;49.158;8.632;2022-10-16T00:11:28;0.60;;;0.40;;
19149;SDS011;9707;49.158;8.632;2022-10-16T00:13:56;3.60;;;0.60;;
19149;SDS011;9707;49.158;8.632;2022-10-16T00:16:23;0.70;;;0.40;;
19149;SDS011;9707;49.158;8.632;2022-10-16T00:18:49;0.60;;;0.47;;
19149;SDS011;9707;49.158;8.632;2022-10-16T00:21:18;3.47;;;0.70;;
19149;SDS011;9707;49.158;8.632;2022-10-16T00:23:46;0.98;;;0.70;;
19149;SDS011;9707;49.158;8.632;2022-10-16T00:26:13;2.35;;;0.85;;
19149;SDS011;9707;49.158;8.632;2022-10-16T00:28:40;1.27;;;0.60;;
19149;SDS011;9707;49.158;8.632;2022-10-16T00:31:06;1.80;;;0.47;;
19149;SDS011;9707;49.158;8.632;2022-10-16T00:33:34;1.30;;;0.50;;
19149;SDS011;9707;49.158;8.632;2022-10-16T00:36:00;2.60;;;0.52;;
19149;SDS011;9707;49.158;8.632;2022-10-16T00:38:27;1.85;;;0.60;;
19149;SDS011;9707;49.158;8.632;2022-10-16T00:40:52;1.40;;;0.68;;
19149;SDS011;9707;49.158;8.632;2022-10-16T00:46:08;2.05;;;0.60;;
19149;SDS011;9707;49.158;8.632;2022-10-16T00:48:38;1.92;;;0.60;;
19149;SDS011;9707;49.158;8.632;2022-10-16T00:51:04;3.88;;;0.70;;
19149;SDS011;9707;49.158;8.632;2022-10-16T00:53:32;1.02;;;0.63;;
19149;SDS011;9707;49.158;8.632;2022-10-16T00:55:58;3.13;;;0.68;;
19149;SDS011;9707;49.158;8.632;2022-10-16T00:58:23;4.35;;;1.05;;
19149;SDS011;9707;49.158;8.632;2022-10-16T01:00:49;3.33;;;0.50;;
19149;SDS011;9707;49.158;8.632;2022-10-16T01:05:58;2.28;;;0.68;;
19149;SDS011;9707;49.158;8.632;2022-10-16T01:11:22;1.95;;;0.70;;
19149;SDS011;9707;49.158;8.632;2022-10-16T01:13:55;2.55;;;0.90;;
19149;SDS011;9707;49.158;8.632;2022-10-16T01:19:17;3.70;;;0.52;;
19149;SDS011;9707;49.158;8.632;2022-10-16T01:21:51;2.60;;;0.57;;
19149;SDS011;9707;49.158;8.632;2022-10-16T01:32:44;1.00;;;0.70;;
19149;SDS011;9707;49.158;8.632;2022-10-16T01:35:17;2.63;;;0.98;;
19149;SDS011;9707;49.158;8.632;2022-10-16T01:37:48;2.58;;;0.70;;
19149;SDS011;9707;49.158;8.632;2022-10-16T01:40:19;4.32;;;0.80;;
19149;SDS011;9707;49.158;8.632;2022-10-16T01:42:51;2.65;;;0.88;;
19149;SDS011;9707;49.158;8.632;2022-10-16T01:45:21;3.33;;;0.90;;
19149;SDS011;9707;49.158;8.632;2022-10-16T01:47:46;1.60;;;0.80;;
19149;SDS011;9707;49.158;8.632;2022-10-16T01:50:15;4.03;;;0.63;;
19149;SDS011;9707;49.158;8.632;2022-10-16T01:52:43;1.85;;;0.60;;
19149;SDS011;9707;49.158;8.632;2022-10-16T01:55:12;1.17;;;0.38;;
19149;SDS011;9707;49.158;8.632;2022-10-16T01:57:41;1.02;;;0.60;;
19149;SDS011;9707;49.158;8.632;2022-10-16T02:00:12;2.92;;;0.70;;
19149;SDS011;9707;49.158;8.632;2022-10-16T02:02:42;0.82;;;0.55;;
19149;SDS011;9707;49.158;8.632;2022-10-16T02:05:18;3.03;;;0.60;;
19149;SDS011;9707;49.158;8.632;2022-10-16T02:07:48;2.00;;;0.50;;
19149;SDS011;9707;49.158;8.632;2022-10-16T02:10:14;3.38;;;0.60;;
19149;SDS011;9707;49.158;8.632;2022-10-16T02:12:41;2.10;;;0.77;;
19149;SDS011;9707;49.158;8.632;2022-10-16T02:15:10;1.83;;;0.80;;
19149;SDS011;9707;49.158;8.632;2022-10-16T02:17:36;1.25;;;0.70;;
19149;SDS011;9707;49.158;8.632;2022-10-16T02:20:01;4.47;;;0.90;;
19149;SDS011;9707;49.158;8.632;2022-10-16T02:22:28;1.65;;;0.40;;
19149;SDS011;9707;49.158;8.632;2022-10-16T02:24:58;1.75;;;0.55;;
19149;SDS011;9707;49.158;8.632;2022-10-16T02:33:14;1.08;;;0.60;;
19149;SDS011;9707;49.158;8.632;2022-10-16T02:35:41;3.47;;;0.70;;
19149;SDS011;9707;49.158;8.632;2022-10-16T02:38:10;1.88;;;0.50;;
19149;SDS011;9707;49.158;8.632;2022-10-16T02:40:36;2.95;;;0.60;;
19149;SDS011;9707;49.158;8.632;2022-10-16T02:43:03;3.45;;;0.80;;
19149;SDS011;9707;49.158;8.632;2022-10-16T02:45:29;0.73;;;0.63;;
19149;SDS011;9707;49.158;8.632;2022-10-16T02:47:54;2.85;;;0.63;;
19149;SDS011;9707;49.158;8.632;2022-10-16T02:50:20;1.75;;;0.57;;
19149;SDS011;9707;49.158;8.632;2022-10-16T02:52:45;1.35;;;0.57;;
19149;SDS011;9707;49.158;8.632;2022-10-16T02:55:11;0.90;;;0.47;;
19149;SDS011;9707;49.158;8.632;2022-10-16T02:57:36;2.17;;;0.70;;
19149;SDS011;9707;49.158;8.632;2022-10-16T03:00:03;2.17;;;0.77;;
19149;SDS011;9707;49.158;8.632;2022-10-16T03:02:29;2.15;;;0.70;;
19149;SDS011;9707;49.158;8.632;2022-10-16T03:04:54;2.67;;;0.68;;
19149;SDS011;9707;49.158;8.632;2022-10-16T03:07:20;3.58;;;0.80;;
19149;SDS011;9707;49.158;8.632;2022-10-16T03:09:45;2.08;;;0.60;;
19149;SDS011;9707;49.158;8.632;2022-10-16T03:12:10;2.10;;;0.65;;
19149;SDS011;9707;49.158;8.632;2022-10-16T03:14:37;1.80;;;0.70;;
19149;SDS011;9707;49.158;8.632;2022-10-16T03:17:02;1.23;;;0.70;;
19149;SDS011;9707;49.158;8.632;2022-10-16T03:19:27;1.83;;;0.60;;
19149;SDS011;9707;49.158;8.632;2022-10-16T03:21:52;1.90;;;0.68;;
19149;SDS011;9707;49.158;8.632;2022-10-16T03:24:18;2.53;;;0.80;;
19149;SDS011;9707;49.158;8.632;2022-10-16T03:26:43;2.28;;;0.65;;
19149;SDS011;9707;49.158;8.632;2022-10-16T03:29:08;3.10;;;0.73;;
19149;SDS011;9707;49.158;8.632;2022-10-16T03:31:33;0.88;;;0.50;;
19149;SDS011;9707;49.158;8.632;2022-10-16T03:33:59;3.03;;;1.13;;
19149;SDS011;9707;49.158;8.632;2022-10-16T03:36:24;1.83;;;0.75;;
19149;SDS011;9707;49.158;8.632;2022-10-16T03:38:50;3.83;;;0.60;;
19149;SDS011;9707;49.158;8.632;2022-10-16T03:41:15;4.70;;;0.82;;
19149;SDS011;9707;49.158;8.632;2022-10-16T03:43:40;1.48;;;0.60;;
19149;SDS011;9707;49.158;8.632;2022-10-16T03:46:06;4.15;;;1.02;;
19149;SDS011;9707;49.158;8.632;2022-10-16T03:48:31;3.80;;;1.10;;
19149;SDS011;9707;49.158;8.632;2022-10-16T03:50:57;4.78;;;0.95;;
19149;SDS011;9707;49.158;8.632;2022-10-16T03:53:22;3.70;;;1.50;;
19149;SDS011;9707;49.158;8.632;2022-10-16T03:55:48;3.03;;;1.00;;
19149;SDS011;9707;49.158;8.632;2022-10-16T03:58:13;4.03;;;1.20;;
19149;SDS011;9707;49.158;8.632;2022-10-16T04:00:45;5.05;;;1.42;;
19149;SDS011;9707;49.158;8.632;2022-10-16T04:03:12;3.33;;;1.20;;
19149;SDS011;9707;49.158;8.632;2022-10-16T04:05:38;3.55;;;1.70;;
19149;SDS011;9707;49.158;8.632;2022-10-16T04:08:03;3.80;;;1.20;;
19149;SDS011;9707;49.158;8.632;2022-10-16T04:10:29;2.40;;;1.50;;
19149;SDS011;9707;49.158;8.632;2022-10-16T04:12:54;2.45;;;1.05;;
19149;SDS011;9707;49.158;8.632;2022-10-16T04:15:21;1.50;;;1.02;;
19149;SDS011;9707;49.158;8.632;2022-10-16T04:17:47;5.82;;;1.50;;
19149;SDS011;9707;49.158;8.632;2022-10-16T04:20:12;4.55;;;1.98;;
19149;SDS011;9707;49.158;8.632;2022-10-16T04:22:37;1.70;;;0.93;;
19149;SDS011;9707;49.158;8.632;2022-10-16T04:25:02;1.52;;;0.70;;
19149;SDS011;9707;49.158;8.632;2022-10-16T04:27:28;2.72;;;1.05;;
19149;SDS011;9707;49.158;8.632;2022-10-16T04:29:56;3.28;;;0.75;;
19149;SDS011;9707;49.158;8.632;2022-10-16T04:32:21;3.63;;;1.02;;
19149;SDS011;9707;49.158;8.632;2022-10-16T04:34:46;3.78;;;1.27;;
19149;SDS011;9707;49.158;8.632;2022-10-16T04:37:12;2.55;;;0.98;;
19149;SDS011;9707;49.158;8.632;2022-10-16T04:39:37;2.65;;;0.82;;
19149;SDS011;9707;49.158;8.632;2022-10-16T04:42:02;2.25;;;1.33;;
19149;SDS011;9707;49.158;8.632;2022-10-16T04:44:27;2.42;;;0.90;;
19149;SDS011;9707;49.158;8.632;2022-10-16T04:46:53;1.88;;;1.13;;
19149;SDS011;9707;49.158;8.632;2022-10-16T04:49:18;3.50;;;1.15;;
19149;SDS011;9707;49.158;8.632;2022-10-16T04:51:43;2.60;;;1.40;;
19149;SDS011;9707;49.158;8.632;2022-10-16T04:54:09;2.60;;;1.40;;
19149;SDS011;9707;49.158;8.632;2022-10-16T04:56:34;2.40;;;1.33;;
19149;SDS011;9707;49.158;8.632;2022-10-16T04:59:07;1.40;;;0.85;;
19149;SDS011;9707;49.158;8.632;2022-10-16T05:01:32;1.90;;;1.13;;
19149;SDS011;9707;49.158;8.632;2022-10-16T05:03:58;5.60;;;1.63;;
19149;SDS011;9707;49.158;8.632;2022-10-16T05:06:23;2.58;;;0.90;;
19149;SDS011;9707;49.158;8.632;2022-10-16T05:08:48;4.78;;;0.80;;
19149;SDS011;9707;49.158;8.632;2022-10-16T05:11:13;1.50;;;1.25;;
19149;SDS011;9707;49.158;8.632;2022-10-16T05:13:39;2.33;;;0.80;;
19149;SDS011;9707;49.158;8.632;2022-10-16T05:16:04;1.05;;;0.68;;
19149;SDS011;9707;49.158;8.632;2022-10-16T05:18:30;2.70;;;1.00;;
19149;SDS011;9707;49.158;8.632;2022-10-16T05:20:55;1.95;;;1.13;;
19149;SDS011;9707;49.158;8.632;2022-10-16T05:23:20;3.10;;;0.75;;
19149;SDS011;9707;49.158;8.632;2022-10-16T05:25:51;1.83;;;0.77;;
19149;SDS011;9707;49.158;8.632;2022-10-16T05:28:20;2.17;;;0.80;;
19149;SDS011;9707;49.158;8.632;2022-10-16T05:30:46;6.43;;;0.80;;
19149;SDS011;9707;49.158;8.632;2022-10-16T05:33:11;6.75;;;0.90;;
19149;SDS011;9707;49.158;8.632;2022-10-16T05:35:37;0.80;;;0.80;;
19149;SDS011;9707;49.158;8.632;2022-10-16T05:38:02;4.55;;;1.17;;
19149;SDS011;9707;49.158;8.632;2022-10-16T05:40:27;3.95;;;1.23;;
19149;SDS011;9707;49.158;8.632;2022-10-16T05:42:55;4.50;;;0.85;;
19149;SDS011;9707;49.158;8.632;2022-10-16T05:45:21;2.42;;;1.10;;
19149;SDS011;9707;49.158;8.632;2022-10-16T05:47:46;2.92;;;0.90;;
19149;SDS011;9707;49.158;8.632;2022-10-16T05:50:12;6.07;;;1.13;;
19149;SDS011;9707;49.158;8.632;2022-10-16T05:52:37;1.27;;;0.88;;
19149;SDS011;9707;49.158;8.632;2022-10-16T05:55:02;1.75;;;0.60;;
19149;SDS011;9707;49.158;8.632;2022-10-16T05:57:28;1.30;;;1.00;;
19149;SDS011;9707;49.158;8.632;2022-10-16T05:59:54;3.95;;;1.25;;
19149;SDS011;9707;49.158;8.632;2022-10-16T06:02:19;2.53;;;1.45;;
19149;SDS011;9707;49.158;8.632;2022-10-16T06:04:44;2.10;;;1.20;;
19149;SDS011;9707;49.158;8.632;2022-10-16T06:07:09;2.35;;;0.90;;
19149;SDS011;9707;49.158;8.632;2022-10-16T06:09:35;3.53;;;1.50;;
19149;SDS011;9707;49.158;8.632;2022-10-16T06:12:00;1.42;;;0.70;;
19149;SDS011;9707;49.158;8.632;2022-10-16T06:14:25;1.42;;;0.90;;
19149;SDS011;9707;49.158;8.632;2022-10-16T06:16:51;2.28;;;0.88;;
19149;SDS011;9707;49.158;8.632;2022-10-16T06:19:16;1.92;;;1.05;;
19149;SDS011;9707;49.158;8.632;2022-10-16T06:21:42;2.60;;;0.82;;
19149;SDS011;9707;49.158;8.632;2022-10-16T06:24:08;3.90;;;0.77;;
19149;SDS011;9707;49.158;8.632;2022-10-16T06:26:34;6.38;;;1.10;;
19149;SDS011;9707;49.158;8.632;2022-10-16T06:28:59;4.88;;;1.20;;
19149;SDS011;9707;49.158;8.632;2022-10-16T06:31:25;4.57;;;1.00;;
19149;SDS011;9707;49.158;8.632;2022-10-16T06:33:53;3.15;;;0.80;;
19149;SDS011;9707;49.158;8.632;2022-10-16T06:36:19;2.92;;;1.50;;
19149;SDS011;9707;49.158;8.632;2022-10-16T06:38:45;4.38;;;1.45;;
19149;SDS011;9707;49.158;8.632;2022-10-16T06:41:11;9.65;;;5.85;;
19149;SDS011;9707;49.158;8.632;2022-10-16T06:43:41;10.05;;;4.30;;
19149;SDS011;9707;49.158;8.632;2022-10-16T06:46:07;4.20;;;1.80;;
19149;SDS011;9707;49.158;8.632;2022-10-16T06:48:35;5.45;;;1.90;;
19149;SDS011;9707;49.158;8.632;2022-10-16T06:53:29;1.50;;;1.40;;
19149;SDS011;9707;49.158;8.632;2022-10-16T06:56:06;5.30;;;1.35;;
19149;SDS011;9707;49.158;8.632;2022-10-16T06:58:42;2.60;;;1.40;;
19149;SDS011;9707;49.158;8.632;2022-10-16T07:01:08;2.35;;;1.10;;
19149;SDS011;9707;49.158;8.632;2022-10-16T07:03:39;3.38;;;1.25;;
19149;SDS011;9707;49.158;8.632;2022-10-16T07:06:06;1.30;;;0.77;;
19149;SDS011;9707;49.158;8.632;2022-10-16T07:08:34;0.85;;;0.80;;
19149;SDS011;9707;49.158;8.632;2022-10-16T07:11:04;0.95;;;0.73;;
19149;SDS011;9707;49.158;8.632;2022-10-16T07:13:35;0.90;;;0.80;;
19149;SDS011;9707;49.158;8.632;2022-10-16T07:16:11;0.95;;;0.80;;
19149;SDS011;9707;49.158;8.632;2022-10-16T07:18:37;1.60;;;0.95;;
19149;SDS011;9707;49.158;8.632;2022-10-16T07:21:05;1.73;;;0.88;;
19149;SDS011;9707;49.158;8.632;2022-10-16T07:23:33;2.97;;;1.20;;
19149;SDS011;9707;49.158;8.632;2022-10-16T07:25:59;3.00;;;1.50;;
19149;SDS011;9707;49.158;8.632;2022-10-16T07:28:24;2.85;;;1.40;;
19149;SDS011;9707;49.158;8.632;2022-10-16T07:30:50;4.13;;;1.23;;
19149;SDS011;9707;49.158;8.632;2022-10-16T07:33:15;2.80;;;1.30;;
19149;SDS011;9707;49.158;8.632;2022-10-16T07:35:47;2.60;;;1.00;;
19149;SDS011;9707;49.158;8.632;2022-10-16T07:38:16;2.63;;;0.93;;
19149;SDS011;9707;49.158;8.632;2022-10-16T07:40:41;3.97;;;1.15;;
19149;SDS011;9707;49.158;8.632;2022-10-16T07:43:07;1.20;;;0.60;;
19149;SDS011;9707;49.158;8.632;2022-10-16T07:45:32;3.05;;;0.80;;
19149;SDS011;9707;49.158;8.632;2022-10-16T07:47:57;4.57;;;1.23;;
19149;SDS011;9707;49.158;8.632;2022-10-16T07:50:23;2.05;;;0.70;;
19149;SDS011;9707;49.158;8.632;2022-10-16T07:52:48;3.13;;;1.00;;
19149;SDS011;9707;49.158;8.632;2022-10-16T07:55:13;4.10;;;0.85;;
19149;SDS011;9707;49.158;8.632;2022-10-16T07:57:38;2.38;;;0.90;;
19149;SDS011;9707;49.158;8.632;2022-10-16T08:00:04;4.88;;;1.83;;
19149;SDS011;9707;49.158;8.632;2022-10-16T08:02:30;4.05;;;1.50;;
19149;SDS011;9707;49.158;8.632;2022-10-16T08:04:56;4.57;;;1.05;;
19149;SDS011;9707;49.158;8.632;2022-10-16T08:07:21;5.88;;;1.10;;
19149;SDS011;9707;49.158;8.632;2022-10-16T08:09:48;1.30;;;1.17;;
19149;SDS011;9707;49.158;8.632;2022-10-16T08:12:14;3.88;;;1.10;;
19149;SDS011;9707;49.158;8.632;2022-10-16T08:14:40;3.83;;;0.98;;
19149;SDS011;9707;49.158;8.632;2022-10-16T08:17:05;2.10;;;0.77;;
19149;SDS011;9707;49.158;8.632;2022-10-16T08:19:30;2.42;;;1.00;;
19149;SDS011;9707;49.158;8.632;2022-10-16T08:21:59;2.45;;;1.58;;
19149;SDS011;9707;49.158;8.632;2022-10-16T08:24:24;2.65;;;1.52;;
19149;SDS011;9707;49.158;8.632;2022-10-16T08:26:49;2.53;;;1.60;;
19149;SDS011;9707;49.158;8.632;2022-10-16T08:29:15;3.13;;;1.60;;
19149;SDS011;9707;49.158;8.632;2022-10-16T08:31:40;2.33;;;1.52;;
19149;SDS011;9707;49.158;8.632;2022-10-16T08:34:05;2.88;;;1.60;;
19149;SDS011;9707;49.158;8.632;2022-10-16T08:36:30;5.00;;;1.38;;
19149;SDS011;9707;49.158;8.632;2022-10-16T08:38:56;4.07;;;1.10;;
19149;SDS011;9707;49.158;8.632;2022-10-16T08:41:23;1.85;;;1.13;;
19149;SDS011;9707;49.158;8.632;2022-10-16T08:52:23;5.50;;;1.35;;
19149;SDS011;9707;49.158;8.632;2022-10-16T08:54:53;3.15;;;1.10;;
19149;SDS011;9707;49.158;8.632;2022-10-16T08:57:21;3.42;;;1.02;;
19149;SDS011;9707;49.158;8.632;2022-10-16T08:59:49;4.25;;;1.15;;
19149;SDS011;9707;49.158;8.632;2022-10-16T09:02:21;2.47;;;0.95;;
19149;SDS011;9707;49.158;8.632;2022-10-16T09:07:26;3.85;;;1.40;;
19149;SDS011;9707;49.158;8.632;2022-10-16T09:12:24;2.97;;;1.10;;
19149;SDS011;9707;49.158;8.632;2022-10-16T09:14:58;4.07;;;1.10;;
19149;SDS011;9707;49.158;8.632;2022-10-16T09:20:16;1.67;;;1.00;;
19149;SDS011;9707;49.158;8.632;2022-10-16T09:25:28;3.25;;;1.45;;
19149;SDS011;9707;49.158;8.632;2022-10-16T09:27:53;3.92;;;1.17;;
19149;SDS011;9707;49.158;8.632;2022-10-16T09:30:20;1.60;;;1.00;;
19149;SDS011;9707;49.158;8.632;2022-10-16T09:32:50;4.20;;;1.20;;
19149;SDS011;9707;49.158;8.632;2022-10-16T09:35:18;3.35;;;1.30;;
19149;SDS011;9707;49.158;8.632;2022-10-16T09:37:47;5.05;;;1.20;;
19149;SDS011;9707;49.158;8.632;2022-10-16T09:40:31;3.50;;;1.52;;
19149;SDS011;9707;49.158;8.632;2022-10-16T09:45:43;2.40;;;1.02;;
19149;SDS011;9707;49.158;8.632;2022-10-16T09:48:17;2.22;;;1.00;;
19149;SDS011;9707;49.158;8.632;2022-10-16T09:50:54;1.63;;;1.00;;
19149;SDS011;9707;49.158;8.632;2022-10-16T09:53:20;3.22;;;1.55;;
19149;SDS011;9707;49.158;8.632;2022-10-16T09:55:51;3.80;;;0.90;;
19149;SDS011;9707;49.158;8.632;2022-10-16T09:58:21;1.45;;;1.00;;
19149;SDS011;9707;49.158;8.632;2022-10-16T10:00:48;3.08;;;1.13;;
19149;SDS011;9707;49.158;8.632;2022-10-16T10:03:23;1.73;;;1.17;;
19149;SDS011;9707;49.158;8.632;2022-10-16T10:06:01;3.88;;;0.88;;
19149;SDS011;9707;49.158;8.632;2022-10-16T10:08:32;4.35;;;0.85;;
19149;SDS011;9707;49.158;8.632;2022-10-16T10:10:57;1.40;;;0.88;;
19149;SDS011;9707;49.158;8.632;2022-10-16T10:13:24;4.15;;;1.05;;
19149;SDS011;9707;49.158;8.632;2022-10-16T10:15:50;2.03;;;0.90;;
19149;SDS011;9707;49.158;8.632;2022-10-16T10:18:16;2.60;;;1.58;;
19149;SDS011;9707;49.158;8.632;2022-10-16T10:20:44;2.25;;;0.98;;
19149;SDS011;9707;49.158;8.632;2022-10-16T10:23:19;1.20;;;0.85;;
19149;SDS011;9707;49.158;8.632;2022-10-16T10:25:52;5.43;;;1.60;;
19149;SDS011;9707;49.158;8.632;2022-10-16T10:28:47;3.55;;;1.10;;
19149;SDS011;9707;49.158;8.632;2022-10-16T10:42:51;1.45;;;0.88;;
19149;SDS011;9707;49.158;8.632;2022-10-16T10:45:26;5.07;;;1.17;;
19149;SDS011;9707;49.158;8.632;2022-10-16T10:48:20;4.18;;;0.88;;
19149;SDS011;9707;49.158;8.632;2022-10-16T11:07:25;2.03;;;1.17;;
19149;SDS011;9707;49.158;8.632;2022-10-16T11:09:57;2.28;;;0.93;;
19149;SDS011;9707;49.158;8.632;2022-10-16T11:12:32;2.83;;;0.93;;
19149;SDS011;9707;49.158;8.632;2022-10-16T11:15:14;3.15;;;0.95;;
19149;SDS011;9707;49.158;8.632;2022-10-16T11:20:42;1.05;;;0.82;;
19149;SDS011;9707;49.158;8.632;2022-10-16T11:23:27;1.73;;;1.00;;
19149;SDS011;9707;49.158;8.632;2022-10-16T11:25:58;3.65;;;1.13;;
19149;SDS011;9707;49.158;8.632;2022-10-16T11:28:32;4.13;;;1.40;;
19149;SDS011;9707;49.158;8.632;2022-10-16T11:31:17;2.67;;;1.02;;
19149;SDS011;9707;49.158;8.632;2022-10-16T11:33:49;1.52;;;1.13;;
19149;SDS011;9707;49.158;8.632;2022-10-16T11:36:46;3.13;;;1.40;;
19149;SDS011;9707;49.158;8.632;2022-10-16T11:39:18;2.60;;;1.00;;
19149;SDS011;9707;49.158;8.632;2022-10-16T11:41:47;6.88;;;1.08;;
19149;SDS011;9707;49.158;8.632;2022-10-16T11:49:55;4.10;;;1.42;;
19149;SDS011;9707;49.158;8.632;2022-10-16T11:52:25;5.00;;;1.15;;
19149;SDS011;9707;49.158;8.632;2022-10-16T11:57:28;4.70;;;1.20;;
19149;SDS011;9707;49.158;8.632;2022-10-16T12:02:38;2.50;;;1.08;;
19149;SDS011;9707;49.158;8.632;2022-10-16T12:05:31;2.50;;;0.95;;
19149;SDS011;9707;49.158;8.632;2022-10-16T12:08:18;1.55;;;1.10;;
19149;SDS011;9707;49.158;8.632;2022-10-16T12:10:44;2.80;;;0.98;;
19149;SDS011;9707;49.158;8.632;2022-10-16T12:13:30;2.00;;;0.85;;
19149;SDS011;9707;49.158;8.632;2022-10-16T12:16:33;2.72;;;1.10;;
19149;SDS011;9707;49.158;8.632;2022-10-16T12:19:03;3.80;;;1.38;;
19149;SDS011;9707;49.158;8.632;2022-10-16T12:21:36;2.70;;;1.00;;
19149;SDS011;9707;49.158;8.632;2022-10-16T12:24:02;3.63;;;1.15;;
19149;SDS011;9707;49.158;8.632;2022-10-16T12:26:30;1.60;;;1.00;;
19149;SDS011;9707;49.158;8.632;2022-10-16T12:32:02;2.17;;;0.90;;
19149;SDS011;9707;49.158;8.632;2022-10-16T12:34:47;1.40;;;0.80;;
19149;SDS011;9707;49.158;8.632;2022-10-16T12:39:43;5.90;;;1.30;;
19149;SDS011;9707;49.158;8.632;2022-10-16T12:44:52;2.42;;;1.10;;
19149;SDS011;9707;49.158;8.632;2022-10-16T12:47:20;1.98;;;1.00;;
19149;SDS011;9707;49.158;8.632;2022-10-16T12:49:59;4.18;;;0.90;;
19149;SDS011;9707;49.158;8.632;2022-10-16T12:52:34;2.40;;;1.00;;
19149;SDS011;9707;49.158;8.632;2022-10-16T12:55:03;2.45;;;1.48;;
19149;SDS011;9707;49.158;8.632;2022-10-16T13:00:32;3.58;;;1.20;;
19149;SDS011;9707;49.158;8.632;2022-10-16T13:03:28;2.22;;;1.10;;
19149;SDS011;9707;49.158;8.632;2022-10-16T13:17:28;4.38;;;1.20;;
19149;SDS011;9707;49.158;8.632;2022-10-16T13:19:44;3.88;;;1.20;;
19149;SDS011;9707;49.158;8.632;2022-10-16T13:28:10;1.42;;;0.85;;
19149;SDS011;9707;49.158;8.632;2022-10-16T13:30:44;4.03;;;1.30;;
19149;SDS011;9707;49.158;8.632;2022-10-16T13:33:36;2.10;;;1.00;;
19149;SDS011;9707;49.158;8.632;2022-10-16T13:36:04;4.00;;;1.20;;
19149;SDS011;9707;49.158;8.632;2022-10-16T13:38:31;1.50;;;0.90;;
19149;SDS011;9707;49.158;8.632;2022-10-16T13:40:59;6.53;;;1.30;;
19149;SDS011;9707;49.158;8.632;2022-10-16T13:43:39;5.32;;;1.23;;
19149;SDS011;9707;49.158;8.632;2022-10-16T13:46:14;5.63;;;1.50;;
19149;SDS011;9707;49.158;8.632;2022-10-16T13:48:41;1.80;;;1.13;;
19149;SDS011;9707;49.158;8.632;2022-10-16T13:51:17;3.70;;;1.50;;
19149;SDS011;9707;49.158;8.632;2022-10-16T13:53:43;2.83;;;1.00;;
19149;SDS011;9707;49.158;8.632;2022-10-16T13:56:14;1.45;;;1.13;;
19149;SDS011;9707;49.158;8.632;2022-10-16T13:58:41;1.92;;;1.00;;
19149;SDS011;9707;49.158;8.632;2022-10-16T14:01:20;2.55;;;1.10;;
19149;SDS011;9707;49.158;8.632;2022-10-16T14:03:50;2.53;;;1.02;;
19149;SDS011;9707;49.158;8.632;2022-10-16T14:06:17;2.47;;;1.23;;
19149;SDS011;9707;49.158;8.632;2022-10-16T14:08:48;2.88;;;1.20;;
19149;SDS011;9707;49.158;8.632;2022-10-16T14:11:24;2.15;;;1.40;;
19149;SDS011;9707;49.158;8.632;2022-10-16T14:13:50;1.75;;;1.02;;
19149;SDS011;9707;49.158;8.632;2022-10-16T14:16:17;3.70;;;1.27;;
19149;SDS011;9707;49.158;8.632;2022-10-16T14:18:49;1.73;;;1.10;;
19149;SDS011;9707;49.158;8.632;2022-10-16T14:21:21;1.75;;;1.15;;
19149;SDS011;9707;49.158;8.632;2022-10-16T14:23:46;7.30;;;1.15;;
19149;SDS011;9707;49.158;8.632;2022-10-16T14:26:13;5.30;;;1.17;;
19149;SDS011;9707;49.158;8.632;2022-10-16T14:28:40;1.58;;;1.10;;
19149;SDS011;9707;49.158;8.632;2022-10-16T14:33:53;2.30;;;1.20;;
19149;SDS011;9707;49.158;8.632;2022-10-16T14:36:19;9.90;;;2.30;;
19149;SDS011;9707;49.158;8.632;2022-10-16T14:39:06;3.15;;;1.80;;
19149;SDS011;9707;49.158;8.632;2022-10-16T14:41:46;2.90;;;1.55;;
19149;SDS011;9707;49.158;8.632;2022-10-16T14:44:13;2.60;;;1.20;;
19149;SDS011;9707;49.158;8.632;2022-10-16T14:46:40;2.85;;;1.23;;
19149;SDS011;9707;49.158;8.632;2022-10-16T14:51:33;4.45;;;1.70;;
19149;SDS011;9707;49.158;8.632;2022-10-16T14:53:58;1.92;;;1.20;;
19149;SDS011;9707;49.158;8.632;2022-10-16T14:56:24;5.10;;;1.38;;
19149;SDS011;9707;49.158;8.632;2022-10-16T14:58:53;4.82;;;1.70;;
19149;SDS011;9707;49.158;8.632;2022-10-16T15:01:20;3.00;;;2.00;;
19149;SDS011;9707;49.158;8.632;2022-10-16T15:03:46;4.10;;;1.52;;
19149;SDS011;9707;49.158;8.632;2022-10-16T15:06:12;3.20;;;1.70;;
19149;SDS011;9707;49.158;8.632;2022-10-16T15:08:39;3.00;;;1.75;;
19149;SDS011;9707;49.158;8.632;2022-10-16T15:11:04;5.40;;;1.88;;
19149;SDS011;9707;49.158;8.632;2022-10-16T15:13:31;6.22;;;2.35;;
19149;SDS011;9707;49.158;8.632;2022-10-16T15:15:56;5.25;;;2.20;;
19149;SDS011;9707;49.158;8.632;2022-10-16T15:18:21;3.88;;;1.52;;
19149;SDS011;9707;49.158;8.632;2022-10-16T15:20:48;6.70;;;1.90;;
19149;SDS011;9707;49.158;8.632;2022-10-16T15:23:15;2.63;;;1.60;;
19149;SDS011;9707;49.158;8.632;2022-10-16T15:25:44;2.55;;;1.13;;
19149;SDS011;9707;49.158;8.632;2022-10-16T15:28:15;5.45;;;1.60;;
19149;SDS011;9707;49.158;8.632;2022-10-16T15:30:41;4.70;;;1.58;;
19149;SDS011;9707;49.158;8.632;2022-10-16T15:33:14;4.35;;;1.20;;
19149;SDS011;9707;49.158;8.632;2022-10-16T15:35:42;3.50;;;1.70;;
19149;SDS011;9707;49.158;8.632;2022-10-16T15:38:13;2.33;;;1.23;;
19149;SDS011;9707;49.158;8.632;2022-10-16T15:40:40;6.00;;;1.42;;
19149;SDS011;9707;49.158;8.632;2022-10-16T15:43:06;2.67;;;1.38;;
19149;SDS011;9707;49.158;8.632;2022-10-16T15:45:31;2.30;;;1.50;;
19149;SDS011;9707;49.158;8.632;2022-10-16T15:47:56;3.40;;;1.23;;
19149;SDS011;9707;49.158;8.632;2022-10-16T15:50:22;3.58;;;1.67;;
19149;SDS011;9707;49.158;8.632;2022-10-16T15:52:47;1.35;;;1.20;;
19149;SDS011;9707;49.158;8.632;2022-10-16T15:55:14;2.25;;;1.55;;
19149;SDS011;9707;49.158;8.632;2022-10-16T15:57:39;2.20;;;1.15;;
19149;SDS011;9707;49.158;8.632;2022-10-16T16:00:08;3.58;;;1.77;;
19149;SDS011;9707;49.158;8.632;2022-10-16T16:02:36;5.10;;;1.50;;
19149;SDS011;9707;49.158;8.632;2022-10-16T16:05:01;2.35;;;1.60;;
19149;SDS011;9707;49.158;8.632;2022-10-16T16:07:27;1.92;;;1.38;;
19149;SDS011;9707;49.158;8.632;2022-10-16T16:09:52;2.22;;;1.23;;
19149;SDS011;9707;49.158;8.632;2022-10-16T16:12:18;4.50;;;2.17;;
19149;SDS011;9707;49.158;8.632;2022-10-16T16:14:43;2.72;;;1.77;;
19149;SDS011;9707;49.158;8.632;2022-10-16T16:17:11;3.58;;;1.77;;
19149;SDS011;9707;49.158;8.632;2022-10-16T16:19:36;6.57;;;1.98;;
19149;SDS011;9707;49.158;8.632;2022-10-16T16:22:01;3.88;;;1.58;;
19149;SDS011;9707;49.158;8.632;2022-10-16T16:24:27;5.63;;;1.60;;
19149;SDS011;9707;49.158;8.632;2022-10-16T16:26:52;3.83;;;1.70;;
19149;SDS011;9707;49.158;8.632;2022-10-16T16:29:17;5.53;;;1.95;;
19149;SDS011;9707;49.158;8.632;2022-10-16T16:31:42;3.88;;;1.80;;
19149;SDS011;9707;49.158;8.632;2022-10-16T16:34:08;3.03;;;2.00;;
19149;SDS011;9707;49.158;8.632;2022-10-16T16:36:33;1.88;;;1.38;;
19149;SDS011;9707;49.158;8.632;2022-10-16T16:38:59;5.53;;;2.17;;
19149;SDS011;9707;49.158;8.632;2022-10-16T16:41:25;8.27;;;2.75;;
19149;SDS011;9707;49.158;8.632;2022-10-16T16:43:52;6.40;;;3.10;;
19149;SDS011;9707;49.158;8.632;2022-10-16T16:46:19;5.38;;;2.50;;
19149;SDS011;9707;49.158;8.632;2022-10-16T16:48:45;2.75;;;1.92;;
19149;SDS011;9707;49.158;8.632;2022-10-16T16:51:14;2.63;;;1.73;;
19149;SDS011;9707;49.158;8.632;2022-10-16T16:53:43;3.60;;;1.85;;
19149;SDS011;9707;49.158;8.632;2022-10-16T16:56:09;3.50;;;1.98;;
19149;SDS011;9707;49.158;8.632;2022-10-16T16:58:34;2.33;;;1.73;;
19149;SDS011;9707;49.158;8.632;2022-10-16T17:01:00;4.97;;;1.98;;
19149;SDS011;9707;49.158;8.632;2022-10-16T17:03:34;4.32;;;1.58;;
19149;SDS011;9707;49.158;8.632;2022-10-16T17:06:05;4.50;;;1.70;;
19149;SDS011;9707;49.158;8.632;2022-10-16T17:08:32;4.22;;;1.48;;
19149;SDS011;9707;49.158;8.632;2022-10-16T17:10:58;10.85;;;1.90;;
19149;SDS011;9707;49.158;8.632;2022-10-16T17:13:24;4.60;;;1.85;;